sensor_id;sensor_type;location;lat;lon;timestamp;P1;durP1;ratioP1;P2;durP2;ratioP2
61756;SDS011;57225;61.460;24.060;2022-10-16T00:01:49;48.70;;;24.00;;
61756;SDS011;57225;61.460;24.060;2022-10-16T00:04:34;48.05;;;22.75;;
61756;SDS011;57225;61.460;24.060;2022-10-16T00:07:18;43.25;;;22.77;;
61756;SDS011;57225;61.460;24.060;2022-10-16T00:10:03;47.78;;;21.88;;
61756;SDS011;57225;61.460;24.060;2022-10-16T00:12:47;44.45;;;22.65;;
61756;SDS011;57225;61.460;24.060;2022-10-16T00:15:35;48.75;;;22.08;;
61756;SDS011;57225;61.460;24.060;2022-10-16T00:18:20;48.13;;;23.00;;
61756;SDS011;57225;61.460;24.060;2022-10-16T00:21:05;42.17;;;21.48;;
61756;SDS011;57225;61.460;24.060;2022-10-16T00:23:55;41.38;;;21.33;;
61756;SDS011;57225;61.460;24.060;2022-10-16T00:26:42;39.40;;;20.73;;
61756;SDS011;57225;61.460;24.060;2022-10-16T00:29:27;34.78;;;19.05;;
61756;SDS011;57225;61.460;24.060;2022-10-16T00:32:11;39.92;;;18.80;;
61756;SDS011;57225;61.460;24.060;2022-10-16T00:34:56;29.02;;;17.23;;
61756;SDS011;57225;61.460;24.060;2022-10-16T00:37:40;35.40;;;18.02;;
61756;SDS011;57225;61.460;24.060;2022-10-16T00:40:25;32.90;;;17.00;;
61756;SDS011;57225;61.460;24.060;2022-10-16T00:43:14;33.67;;;16.42;;
61756;SDS011;57225;61.460;24.060;2022-10-16T00:46:21;32.92;;;16.42;;
61756;SDS011;57225;61.460;24.060;2022-10-16T00:49:15;32.83;;;16.55;;
61756;SDS011;57225;61.460;24.060;2022-10-16T00:52:02;34.13;;;17.25;;
61756;SDS011;57225;61.460;24.060;2022-10-16T00:54:46;31.77;;;17.35;;
61756;SDS011;57225;61.460;24.060;2022-10-16T00:57:33;34.75;;;18.02;;
61756;SDS011;57225;61.460;24.060;2022-10-16T01:00:20;36.08;;;18.33;;
61756;SDS011;57225;61.460;24.060;2022-10-16T01:03:22;36.05;;;18.45;;
61756;SDS011;57225;61.460;24.060;2022-10-16T01:09:23;41.17;;;20.38;;
61756;SDS011;57225;61.460;24.060;2022-10-16T01:12:52;45.95;;;21.30;;
61756;SDS011;57225;61.460;24.060;2022-10-16T01:15:37;53.35;;;24.38;;
61756;SDS011;57225;61.460;24.060;2022-10-16T01:18:34;61.88;;;25.55;;
61756;SDS011;57225;61.460;24.060;2022-10-16T01:21:38;60.40;;;25.25;;
61756;SDS011;57225;61.460;24.060;2022-10-16T01:24:31;58.47;;;24.90;;
61756;SDS011;57225;61.460;24.060;2022-10-16T01:27:26;68.47;;;28.45;;
61756;SDS011;57225;61.460;24.060;2022-10-16T01:30:15;61.60;;;27.42;;
61756;SDS011;57225;61.460;24.060;2022-10-16T01:33:21;64.43;;;27.88;;
61756;SDS011;57225;61.460;24.060;2022-10-16T01:36:16;70.35;;;28.65;;
61756;SDS011;57225;61.460;24.060;2022-10-16T01:39:07;72.90;;;30.08;;
61756;SDS011;57225;61.460;24.060;2022-10-16T01:41:58;75.20;;;31.48;;
61756;SDS011;57225;61.460;24.060;2022-10-16T01:44:48;71.60;;;32.97;;
61756;SDS011;57225;61.460;24.060;2022-10-16T01:47:35;75.43;;;30.77;;
61756;SDS011;57225;61.460;24.060;2022-10-16T01:50:20;79.80;;;32.88;;
61756;SDS011;57225;61.460;24.060;2022-10-16T01:53:05;78.32;;;31.27;;
61756;SDS011;57225;61.460;24.060;2022-10-16T01:55:54;85.93;;;35.45;;
61756;SDS011;57225;61.460;24.060;2022-10-16T01:58:44;94.80;;;37.58;;
61756;SDS011;57225;61.460;24.060;2022-10-16T02:01:32;90.85;;;36.85;;
61756;SDS011;57225;61.460;24.060;2022-10-16T02:04:24;102.30;;;39.03;;
61756;SDS011;57225;61.460;24.060;2022-10-16T02:07:13;94.45;;;38.40;;
61756;SDS011;57225;61.460;24.060;2022-10-16T02:09:59;89.68;;;38.42;;
61756;SDS011;57225;61.460;24.060;2022-10-16T02:12:45;92.00;;;36.22;;
61756;SDS011;57225;61.460;24.060;2022-10-16T02:15:35;92.65;;;37.17;;
61756;SDS011;57225;61.460;24.060;2022-10-16T02:18:20;102.10;;;37.25;;
61756;SDS011;57225;61.460;24.060;2022-10-16T02:21:19;95.70;;;38.95;;
61756;SDS011;57225;61.460;24.060;2022-10-16T02:30:23;86.00;;;36.00;;
61756;SDS011;57225;61.460;24.060;2022-10-16T02:33:14;83.78;;;36.13;;
61756;SDS011;57225;61.460;24.060;2022-10-16T02:36:00;84.07;;;38.80;;
61756;SDS011;57225;61.460;24.060;2022-10-16T02:38:44;88.90;;;38.03;;
61756;SDS011;57225;61.460;24.060;2022-10-16T02:41:30;90.82;;;38.58;;
61756;SDS011;57225;61.460;24.060;2022-10-16T02:44:14;99.70;;;37.50;;
61756;SDS011;57225;61.460;24.060;2022-10-16T02:46:59;92.95;;;37.47;;
61756;SDS011;57225;61.460;24.060;2022-10-16T02:49:43;83.30;;;35.70;;
61756;SDS011;57225;61.460;24.060;2022-10-16T02:52:27;77.70;;;36.67;;
61756;SDS011;57225;61.460;24.060;2022-10-16T02:55:12;80.47;;;35.72;;
61756;SDS011;57225;61.460;24.060;2022-10-16T02:57:56;91.03;;;37.25;;
61756;SDS011;57225;61.460;24.060;2022-10-16T03:00:41;76.80;;;33.20;;
61756;SDS011;57225;61.460;24.060;2022-10-16T03:03:26;80.63;;;35.42;;
61756;SDS011;57225;61.460;24.060;2022-10-16T03:06:10;77.50;;;34.50;;
61756;SDS011;57225;61.460;24.060;2022-10-16T03:08:55;76.80;;;32.78;;
61756;SDS011;57225;61.460;24.060;2022-10-16T03:11:39;71.03;;;31.13;;
61756;SDS011;57225;61.460;24.060;2022-10-16T03:14:23;72.35;;;31.65;;
61756;SDS011;57225;61.460;24.060;2022-10-16T03:17:08;67.68;;;30.35;;
61756;SDS011;57225;61.460;24.060;2022-10-16T03:19:52;63.10;;;29.55;;
61756;SDS011;57225;61.460;24.060;2022-10-16T03:22:37;65.10;;;29.65;;
61756;SDS011;57225;61.460;24.060;2022-10-16T03:25:21;62.40;;;29.08;;
61756;SDS011;57225;61.460;24.060;2022-10-16T03:28:05;60.38;;;28.50;;
61756;SDS011;57225;61.460;24.060;2022-10-16T03:30:50;60.20;;;28.35;;
61756;SDS011;57225;61.460;24.060;2022-10-16T03:33:34;59.22;;;26.15;;
61756;SDS011;57225;61.460;24.060;2022-10-16T03:36:19;55.95;;;26.42;;
61756;SDS011;57225;61.460;24.060;2022-10-16T03:39:03;53.22;;;25.23;;
61756;SDS011;57225;61.460;24.060;2022-10-16T03:41:48;57.13;;;26.23;;
61756;SDS011;57225;61.460;24.060;2022-10-16T03:44:32;54.13;;;26.58;;
61756;SDS011;57225;61.460;24.060;2022-10-16T03:47:17;50.72;;;24.98;;
61756;SDS011;57225;61.460;24.060;2022-10-16T03:50:05;49.92;;;26.02;;
61756;SDS011;57225;61.460;24.060;2022-10-16T03:52:50;52.22;;;25.60;;
61756;SDS011;57225;61.460;24.060;2022-10-16T03:55:35;54.92;;;25.63;;
61756;SDS011;57225;61.460;24.060;2022-10-16T03:58:19;57.25;;;27.25;;
61756;SDS011;57225;61.460;24.060;2022-10-16T04:01:04;63.70;;;27.48;;
61756;SDS011;57225;61.460;24.060;2022-10-16T04:03:48;55.30;;;25.77;;
61756;SDS011;57225;61.460;24.060;2022-10-16T04:06:33;58.67;;;27.38;;
61756;SDS011;57225;61.460;24.060;2022-10-16T04:09:17;64.93;;;27.35;;
61756;SDS011;57225;61.460;24.060;2022-10-16T04:12:02;62.67;;;28.00;;
61756;SDS011;57225;61.460;24.060;2022-10-16T04:14:47;65.65;;;28.73;;
61756;SDS011;57225;61.460;24.060;2022-10-16T04:17:31;65.15;;;28.73;;
61756;SDS011;57225;61.460;24.060;2022-10-16T04:20:15;67.78;;;29.05;;
61756;SDS011;57225;61.460;24.060;2022-10-16T04:23:00;65.65;;;29.42;;
61756;SDS011;57225;61.460;24.060;2022-10-16T04:25:44;69.85;;;27.70;;
61756;SDS011;57225;61.460;24.060;2022-10-16T04:28:28;64.57;;;27.88;;
61756;SDS011;57225;61.460;24.060;2022-10-16T04:31:13;59.70;;;28.60;;
61756;SDS011;57225;61.460;24.060;2022-10-16T04:33:57;61.55;;;27.70;;
61756;SDS011;57225;61.460;24.060;2022-10-16T04:36:42;70.55;;;30.65;;
61756;SDS011;57225;61.460;24.060;2022-10-16T04:39:26;75.40;;;30.02;;
61756;SDS011;57225;61.460;24.060;2022-10-16T04:42:11;64.57;;;29.88;;
61756;SDS011;57225;61.460;24.060;2022-10-16T04:44:55;70.30;;;31.35;;
61756;SDS011;57225;61.460;24.060;2022-10-16T04:47:40;75.32;;;32.50;;
61756;SDS011;57225;61.460;24.060;2022-10-16T04:50:25;90.57;;;35.00;;
61756;SDS011;57225;61.460;24.060;2022-10-16T04:53:09;90.80;;;34.65;;
61756;SDS011;57225;61.460;24.060;2022-10-16T04:55:54;88.22;;;34.78;;
61756;SDS011;57225;61.460;24.060;2022-10-16T04:58:39;95.03;;;35.58;;
61756;SDS011;57225;61.460;24.060;2022-10-16T05:01:24;85.78;;;36.45;;
61756;SDS011;57225;61.460;24.060;2022-10-16T05:04:08;90.45;;;36.00;;
61756;SDS011;57225;61.460;24.060;2022-10-16T05:06:53;111.25;;;39.03;;
61756;SDS011;57225;61.460;24.060;2022-10-16T05:09:37;106.38;;;38.20;;
61756;SDS011;57225;61.460;24.060;2022-10-16T05:12:21;106.72;;;38.70;;
61756;SDS011;57225;61.460;24.060;2022-10-16T05:15:06;112.03;;;40.03;;
61756;SDS011;57225;61.460;24.060;2022-10-16T05:17:54;118.82;;;41.47;;
61756;SDS011;57225;61.460;24.060;2022-10-16T05:20:40;113.85;;;40.22;;
61756;SDS011;57225;61.460;24.060;2022-10-16T05:23:25;124.40;;;42.08;;
61756;SDS011;57225;61.460;24.060;2022-10-16T05:26:09;114.97;;;41.78;;
61756;SDS011;57225;61.460;24.060;2022-10-16T05:28:54;126.00;;;42.75;;
61756;SDS011;57225;61.460;24.060;2022-10-16T05:31:38;121.00;;;41.60;;
61756;SDS011;57225;61.460;24.060;2022-10-16T05:34:23;124.90;;;42.50;;
61756;SDS011;57225;61.460;24.060;2022-10-16T05:37:07;119.55;;;42.97;;
61756;SDS011;57225;61.460;24.060;2022-10-16T05:39:52;108.97;;;40.67;;
61756;SDS011;57225;61.460;24.060;2022-10-16T05:42:36;111.63;;;41.17;;
61756;SDS011;57225;61.460;24.060;2022-10-16T05:45:21;107.55;;;41.40;;
61756;SDS011;57225;61.460;24.060;2022-10-16T05:48:05;109.00;;;41.47;;
61756;SDS011;57225;61.460;24.060;2022-10-16T05:51:00;114.07;;;41.92;;
61756;SDS011;57225;61.460;24.060;2022-10-16T05:53:46;109.45;;;40.38;;
61756;SDS011;57225;61.460;24.060;2022-10-16T05:56:31;102.18;;;41.65;;
61756;SDS011;57225;61.460;24.060;2022-10-16T05:59:15;99.75;;;39.00;;
61756;SDS011;57225;61.460;24.060;2022-10-16T06:02:00;92.97;;;38.63;;
61756;SDS011;57225;61.460;24.060;2022-10-16T06:04:44;94.38;;;37.25;;
61756;SDS011;57225;61.460;24.060;2022-10-16T06:07:29;77.72;;;34.10;;
61756;SDS011;57225;61.460;24.060;2022-10-16T06:10:17;82.20;;;34.65;;
61756;SDS011;57225;61.460;24.060;2022-10-16T06:13:01;80.53;;;33.42;;
61756;SDS011;57225;61.460;24.060;2022-10-16T06:15:46;74.05;;;33.72;;
61756;SDS011;57225;61.460;24.060;2022-10-16T06:18:30;70.85;;;31.40;;
61756;SDS011;57225;61.460;24.060;2022-10-16T06:21:19;67.68;;;29.52;;
61756;SDS011;57225;61.460;24.060;2022-10-16T06:24:05;62.58;;;28.77;;
61756;SDS011;57225;61.460;24.060;2022-10-16T06:26:50;72.05;;;30.42;;
61756;SDS011;57225;61.460;24.060;2022-10-16T06:29:34;56.25;;;27.75;;
61756;SDS011;57225;61.460;24.060;2022-10-16T06:32:18;60.97;;;28.35;;
61756;SDS011;57225;61.460;24.060;2022-10-16T06:35:03;50.60;;;25.85;;
61756;SDS011;57225;61.460;24.060;2022-10-16T06:37:47;54.17;;;26.58;;
61756;SDS011;57225;61.460;24.060;2022-10-16T06:40:32;46.97;;;24.30;;
61756;SDS011;57225;61.460;24.060;2022-10-16T06:43:16;50.70;;;24.70;;
61756;SDS011;57225;61.460;24.060;2022-10-16T06:46:01;53.90;;;24.38;;
61756;SDS011;57225;61.460;24.060;2022-10-16T06:48:46;45.33;;;22.13;;
61756;SDS011;57225;61.460;24.060;2022-10-16T06:51:30;45.88;;;22.58;;
61756;SDS011;57225;61.460;24.060;2022-10-16T06:54:17;47.95;;;22.02;;
61756;SDS011;57225;61.460;24.060;2022-10-16T06:57:01;44.25;;;22.30;;
61756;SDS011;57225;61.460;24.060;2022-10-16T06:59:46;38.90;;;19.75;;
61756;SDS011;57225;61.460;24.060;2022-10-16T07:02:30;40.03;;;19.25;;
61756;SDS011;57225;61.460;24.060;2022-10-16T07:05:15;39.28;;;19.35;;
61756;SDS011;57225;61.460;24.060;2022-10-16T07:08:00;37.35;;;18.27;;
61756;SDS011;57225;61.460;24.060;2022-10-16T07:10:44;32.97;;;17.67;;
61756;SDS011;57225;61.460;24.060;2022-10-16T07:13:28;32.03;;;17.23;;
61756;SDS011;57225;61.460;24.060;2022-10-16T07:16:14;31.83;;;17.00;;
61756;SDS011;57225;61.460;24.060;2022-10-16T07:19:01;29.08;;;15.60;;
61756;SDS011;57225;61.460;24.060;2022-10-16T07:21:46;29.63;;;14.88;;
61756;SDS011;57225;61.460;24.060;2022-10-16T07:24:31;29.25;;;15.77;;
61756;SDS011;57225;61.460;24.060;2022-10-16T07:27:15;31.20;;;15.27;;
61756;SDS011;57225;61.460;24.060;2022-10-16T07:30:00;24.42;;;13.52;;
61756;SDS011;57225;61.460;24.060;2022-10-16T07:32:44;25.77;;;13.70;;
61756;SDS011;57225;61.460;24.060;2022-10-16T07:35:29;21.42;;;12.93;;
61756;SDS011;57225;61.460;24.060;2022-10-16T07:38:14;21.95;;;11.77;;
61756;SDS011;57225;61.460;24.060;2022-10-16T07:40:59;18.27;;;11.02;;
61756;SDS011;57225;61.460;24.060;2022-10-16T07:43:45;18.65;;;10.77;;
61756;SDS011;57225;61.460;24.060;2022-10-16T07:46:31;18.65;;;10.30;;
61756;SDS011;57225;61.460;24.060;2022-10-16T07:49:17;17.48;;;9.88;;
61756;SDS011;57225;61.460;24.060;2022-10-16T07:52:01;14.57;;;8.60;;
61756;SDS011;57225;61.460;24.060;2022-10-16T07:54:46;13.68;;;8.15;;
61756;SDS011;57225;61.460;24.060;2022-10-16T07:57:30;12.90;;;7.65;;
61756;SDS011;57225;61.460;24.060;2022-10-16T08:00:15;14.48;;;7.75;;
61756;SDS011;57225;61.460;24.060;2022-10-16T08:02:59;12.68;;;7.55;;
61756;SDS011;57225;61.460;24.060;2022-10-16T08:05:44;12.52;;;7.63;;
61756;SDS011;57225;61.460;24.060;2022-10-16T08:08:28;13.20;;;7.55;;
61756;SDS011;57225;61.460;24.060;2022-10-16T08:11:12;10.13;;;6.32;;
61756;SDS011;57225;61.460;24.060;2022-10-16T08:13:58;10.93;;;6.70;;
61756;SDS011;57225;61.460;24.060;2022-10-16T08:16:42;10.60;;;5.63;;
61756;SDS011;57225;61.460;24.060;2022-10-16T08:19:27;7.90;;;5.78;;
61756;SDS011;57225;61.460;24.060;2022-10-16T08:22:11;13.73;;;5.88;;
61756;SDS011;57225;61.460;24.060;2022-10-16T08:24:56;11.90;;;6.75;;
61756;SDS011;57225;61.460;24.060;2022-10-16T08:27:40;11.32;;;6.57;;
61756;SDS011;57225;61.460;24.060;2022-10-16T08:30:25;10.13;;;5.82;;
61756;SDS011;57225;61.460;24.060;2022-10-16T08:33:09;8.82;;;5.82;;
61756;SDS011;57225;61.460;24.060;2022-10-16T08:35:54;9.10;;;6.22;;
61756;SDS011;57225;61.460;24.060;2022-10-16T08:38:39;9.75;;;6.22;;
61756;SDS011;57225;61.460;24.060;2022-10-16T08:50:55;9.88;;;6.28;;
61756;SDS011;57225;61.460;24.060;2022-10-16T08:53:43;14.32;;;6.53;;
61756;SDS011;57225;61.460;24.060;2022-10-16T08:56:32;10.65;;;6.70;;
61756;SDS011;57225;61.460;24.060;2022-10-16T08:59:17;10.45;;;7.03;;
61756;SDS011;57225;61.460;24.060;2022-10-16T09:02:08;10.40;;;6.30;;
61756;SDS011;57225;61.460;24.060;2022-10-16T09:11:24;14.90;;;7.60;;
61756;SDS011;57225;61.460;24.060;2022-10-16T09:18:09;12.38;;;7.07;;
61756;SDS011;57225;61.460;24.060;2022-10-16T09:21:10;13.88;;;7.20;;
61756;SDS011;57225;61.460;24.060;2022-10-16T09:24:10;13.68;;;7.30;;
61756;SDS011;57225;61.460;24.060;2022-10-16T09:26:58;10.65;;;6.88;;
61756;SDS011;57225;61.460;24.060;2022-10-16T09:29:44;10.88;;;7.13;;
61756;SDS011;57225;61.460;24.060;2022-10-16T09:32:29;10.75;;;7.10;;
61756;SDS011;57225;61.460;24.060;2022-10-16T09:35:17;16.17;;;8.32;;
61756;SDS011;57225;61.460;24.060;2022-10-16T09:38:06;12.43;;;7.32;;
61756;SDS011;57225;61.460;24.060;2022-10-16T09:40:51;11.40;;;7.47;;
61756;SDS011;57225;61.460;24.060;2022-10-16T09:43:41;12.50;;;7.53;;
61756;SDS011;57225;61.460;24.060;2022-10-16T09:46:35;17.70;;;8.10;;
61756;SDS011;57225;61.460;24.060;2022-10-16T09:49:23;15.95;;;7.60;;
61756;SDS011;57225;61.460;24.060;2022-10-16T09:52:12;11.32;;;7.57;;
61756;SDS011;57225;61.460;24.060;2022-10-16T09:54:59;14.07;;;7.95;;
61756;SDS011;57225;61.460;24.060;2022-10-16T09:57:51;17.65;;;8.07;;
61756;SDS011;57225;61.460;24.060;2022-10-16T10:00:37;18.05;;;8.05;;
61756;SDS011;57225;61.460;24.060;2022-10-16T10:03:41;12.43;;;7.75;;
61756;SDS011;57225;61.460;24.060;2022-10-16T10:06:28;12.45;;;8.60;;
61756;SDS011;57225;61.460;24.060;2022-10-16T10:09:16;11.90;;;8.02;;
61756;SDS011;57225;61.460;24.060;2022-10-16T10:12:21;13.88;;;8.60;;
61756;SDS011;57225;61.460;24.060;2022-10-16T10:15:11;16.20;;;8.50;;
61756;SDS011;57225;61.460;24.060;2022-10-16T10:17:57;13.25;;;7.95;;
61756;SDS011;57225;61.460;24.060;2022-10-16T10:20:42;16.77;;;9.48;;
61756;SDS011;57225;61.460;24.060;2022-10-16T10:23:27;14.20;;;8.63;;
61756;SDS011;57225;61.460;24.060;2022-10-16T10:26:18;15.60;;;9.02;;
61756;SDS011;57225;61.460;24.060;2022-10-16T10:35:24;19.02;;;9.48;;
61756;SDS011;57225;61.460;24.060;2022-10-16T10:45:11;14.63;;;8.40;;
61756;SDS011;57225;61.460;24.060;2022-10-16T10:54:41;15.57;;;9.50;;
61756;SDS011;57225;61.460;24.060;2022-10-16T10:57:40;13.80;;;8.98;;
61756;SDS011;57225;61.460;24.060;2022-10-16T11:06:27;17.48;;;8.60;;
61756;SDS011;57225;61.460;24.060;2022-10-16T11:18:28;17.73;;;9.32;;
61756;SDS011;57225;61.460;24.060;2022-10-16T11:21:24;18.55;;;10.48;;
61756;SDS011;57225;61.460;24.060;2022-10-16T11:24:14;16.88;;;10.25;;
61756;SDS011;57225;61.460;24.060;2022-10-16T11:27:07;17.23;;;9.73;;
61756;SDS011;57225;61.460;24.060;2022-10-16T11:29:57;17.90;;;10.23;;
61756;SDS011;57225;61.460;24.060;2022-10-16T11:32:50;19.08;;;9.50;;
61756;SDS011;57225;61.460;24.060;2022-10-16T11:38:50;16.58;;;9.68;;
61756;SDS011;57225;61.460;24.060;2022-10-16T11:44:42;15.88;;;8.85;;
61756;SDS011;57225;61.460;24.060;2022-10-16T11:47:41;17.27;;;9.35;;
61756;SDS011;57225;61.460;24.060;2022-10-16T11:50:39;16.80;;;8.55;;
61756;SDS011;57225;61.460;24.060;2022-10-16T11:56:45;15.52;;;8.18;;
61756;SDS011;57225;61.460;24.060;2022-10-16T11:59:37;15.52;;;8.30;;
61756;SDS011;57225;61.460;24.060;2022-10-16T12:08:39;12.82;;;8.13;;
61756;SDS011;57225;61.460;24.060;2022-10-16T12:16:57;16.00;;;8.60;;
61756;SDS011;57225;61.460;24.060;2022-10-16T12:19:43;16.60;;;7.78;;
61756;SDS011;57225;61.460;24.060;2022-10-16T12:22:29;15.23;;;7.90;;
61756;SDS011;57225;61.460;24.060;2022-10-16T12:25:28;12.38;;;6.95;;
61756;SDS011;57225;61.460;24.060;2022-10-16T12:28:21;14.02;;;8.10;;
61756;SDS011;57225;61.460;24.060;2022-10-16T12:31:10;16.05;;;7.80;;
61756;SDS011;57225;61.460;24.060;2022-10-16T12:34:02;12.95;;;8.35;;
61756;SDS011;57225;61.460;24.060;2022-10-16T12:36:47;12.98;;;8.05;;
61756;SDS011;57225;61.460;24.060;2022-10-16T12:39:31;12.68;;;7.97;;
61756;SDS011;57225;61.460;24.060;2022-10-16T12:42:23;14.93;;;8.10;;
61756;SDS011;57225;61.460;24.060;2022-10-16T12:45:38;16.15;;;8.82;;
61756;SDS011;57225;61.460;24.060;2022-10-16T12:48:21;17.65;;;8.15;;
61756;SDS011;57225;61.460;24.060;2022-10-16T12:51:40;13.75;;;8.35;;
61756;SDS011;57225;61.460;24.060;2022-10-16T12:54:20;15.95;;;9.18;;
61756;SDS011;57225;61.460;24.060;2022-10-16T13:06:11;21.25;;;10.13;;
61756;SDS011;57225;61.460;24.060;2022-10-16T13:09:19;19.25;;;9.88;;
61756;SDS011;57225;61.460;24.060;2022-10-16T13:15:16;23.38;;;10.85;;
61756;SDS011;57225;61.460;24.060;2022-10-16T13:21:25;18.10;;;10.23;;
61756;SDS011;57225;61.460;24.060;2022-10-16T13:27:41;17.98;;;9.90;;
61756;SDS011;57225;61.460;24.060;2022-10-16T13:30:41;22.83;;;10.45;;
61756;SDS011;57225;61.460;24.060;2022-10-16T13:33:32;15.82;;;9.45;;
61756;SDS011;57225;61.460;24.060;2022-10-16T13:36:20;19.13;;;10.13;;
61756;SDS011;57225;61.460;24.060;2022-10-16T13:39:10;18.77;;;10.32;;
61756;SDS011;57225;61.460;24.060;2022-10-16T13:44:51;16.65;;;9.38;;
61756;SDS011;57225;61.460;24.060;2022-10-16T13:47:37;19.85;;;9.13;;
61756;SDS011;57225;61.460;24.060;2022-10-16T13:50:21;16.75;;;8.85;;
61756;SDS011;57225;61.460;24.060;2022-10-16T13:53:13;16.13;;;8.93;;
61756;SDS011;57225;61.460;24.060;2022-10-16T13:55:58;14.32;;;8.23;;
61756;SDS011;57225;61.460;24.060;2022-10-16T13:58:44;14.73;;;8.32;;
61756;SDS011;57225;61.460;24.060;2022-10-16T14:01:32;15.35;;;7.85;;
61756;SDS011;57225;61.460;24.060;2022-10-16T14:04:23;11.43;;;6.95;;
61756;SDS011;57225;61.460;24.060;2022-10-16T14:07:15;12.70;;;8.13;;
61756;SDS011;57225;61.460;24.060;2022-10-16T14:10:48;14.35;;;7.88;;
61756;SDS011;57225;61.460;24.060;2022-10-16T14:13:32;12.52;;;7.32;;
61756;SDS011;57225;61.460;24.060;2022-10-16T14:16:29;11.23;;;6.93;;
61756;SDS011;57225;61.460;24.060;2022-10-16T14:19:20;10.95;;;7.15;;
61756;SDS011;57225;61.460;24.060;2022-10-16T14:22:28;12.02;;;6.78;;
61756;SDS011;57225;61.460;24.060;2022-10-16T14:28:21;13.75;;;7.20;;
61756;SDS011;57225;61.460;24.060;2022-10-16T14:34:23;24.17;;;13.98;;
61756;SDS011;57225;61.460;24.060;2022-10-16T14:37:24;19.02;;;10.20;;
61756;SDS011;57225;61.460;24.060;2022-10-16T14:40:13;26.27;;;15.73;;
61756;SDS011;57225;61.460;24.060;2022-10-16T14:42:59;27.75;;;16.98;;
61756;SDS011;57225;61.460;24.060;2022-10-16T14:45:49;21.67;;;14.68;;
61756;SDS011;57225;61.460;24.060;2022-10-16T14:48:39;17.27;;;10.75;;
61756;SDS011;57225;61.460;24.060;2022-10-16T14:51:25;15.52;;;10.05;;
61756;SDS011;57225;61.460;24.060;2022-10-16T14:54:11;9.65;;;6.10;;
61756;SDS011;57225;61.460;24.060;2022-10-16T14:56:57;11.20;;;6.68;;
61756;SDS011;57225;61.460;24.060;2022-10-16T14:59:42;8.52;;;5.57;;
61756;SDS011;57225;61.460;24.060;2022-10-16T15:02:28;7.57;;;4.93;;
61756;SDS011;57225;61.460;24.060;2022-10-16T15:08:02;7.28;;;4.38;;
61756;SDS011;57225;61.460;24.060;2022-10-16T15:10:47;6.72;;;4.47;;
61756;SDS011;57225;61.460;24.060;2022-10-16T15:13:35;7.18;;;3.83;;
61756;SDS011;57225;61.460;24.060;2022-10-16T15:16:19;9.25;;;3.88;;
61756;SDS011;57225;61.460;24.060;2022-10-16T15:19:04;4.47;;;3.42;;
61756;SDS011;57225;61.460;24.060;2022-10-16T15:21:48;8.48;;;3.53;;
61756;SDS011;57225;61.460;24.060;2022-10-16T15:24:33;5.25;;;3.53;;
61756;SDS011;57225;61.460;24.060;2022-10-16T15:27:17;4.22;;;3.47;;
61756;SDS011;57225;61.460;24.060;2022-10-16T15:30:02;8.10;;;2.78;;
61756;SDS011;57225;61.460;24.060;2022-10-16T15:32:47;4.15;;;2.45;;
61756;SDS011;57225;61.460;24.060;2022-10-16T15:35:31;4.10;;;2.95;;
61756;SDS011;57225;61.460;24.060;2022-10-16T15:38:16;5.13;;;2.92;;
61756;SDS011;57225;61.460;24.060;2022-10-16T15:41:03;4.32;;;2.78;;
61756;SDS011;57225;61.460;24.060;2022-10-16T15:43:48;8.00;;;3.20;;
61756;SDS011;57225;61.460;24.060;2022-10-16T15:46:33;5.10;;;2.75;;
61756;SDS011;57225;61.460;24.060;2022-10-16T15:49:19;5.22;;;2.97;;
61756;SDS011;57225;61.460;24.060;2022-10-16T15:52:03;6.82;;;2.90;;
61756;SDS011;57225;61.460;24.060;2022-10-16T15:54:48;5.88;;;2.83;;
61756;SDS011;57225;61.460;24.060;2022-10-16T15:57:32;6.38;;;3.25;;
61756;SDS011;57225;61.460;24.060;2022-10-16T16:00:18;6.75;;;3.33;;
61756;SDS011;57225;61.460;24.060;2022-10-16T16:03:09;4.57;;;2.88;;
61756;SDS011;57225;61.460;24.060;2022-10-16T16:05:53;6.80;;;3.30;;
61756;SDS011;57225;61.460;24.060;2022-10-16T16:08:38;6.15;;;3.53;;
61756;SDS011;57225;61.460;24.060;2022-10-16T16:11:23;6.05;;;3.03;;
61756;SDS011;57225;61.460;24.060;2022-10-16T16:14:08;4.95;;;3.10;;
61756;SDS011;57225;61.460;24.060;2022-10-16T16:19:41;4.55;;;2.70;;
61756;SDS011;57225;61.460;24.060;2022-10-16T16:22:26;4.45;;;2.67;;
61756;SDS011;57225;61.460;24.060;2022-10-16T16:25:10;4.20;;;2.90;;
61756;SDS011;57225;61.460;24.060;2022-10-16T16:27:54;6.30;;;2.78;;
61756;SDS011;57225;61.460;24.060;2022-10-16T16:30:39;5.78;;;3.08;;
61756;SDS011;57225;61.460;24.060;2022-10-16T16:33:24;6.40;;;2.80;;
61756;SDS011;57225;61.460;24.060;2022-10-16T16:36:09;5.07;;;3.08;;
61756;SDS011;57225;61.460;24.060;2022-10-16T16:38:53;5.93;;;2.35;;
61756;SDS011;57225;61.460;24.060;2022-10-16T16:41:38;4.85;;;2.65;;
61756;SDS011;57225;61.460;24.060;2022-10-16T16:44:22;4.18;;;2.72;;
61756;SDS011;57225;61.460;24.060;2022-10-16T16:47:07;6.53;;;3.65;;
61756;SDS011;57225;61.460;24.060;2022-10-16T16:49:51;8.93;;;4.68;;
61756;SDS011;57225;61.460;24.060;2022-10-16T16:52:36;10.95;;;5.65;;
61756;SDS011;57225;61.460;24.060;2022-10-16T16:55:20;12.05;;;6.20;;
61756;SDS011;57225;61.460;24.060;2022-10-16T16:58:05;12.32;;;6.65;;
61756;SDS011;57225;61.460;24.060;2022-10-16T17:00:49;14.75;;;7.25;;
61756;SDS011;57225;61.460;24.060;2022-10-16T17:03:34;13.60;;;6.78;;
61756;SDS011;57225;61.460;24.060;2022-10-16T17:06:21;17.70;;;8.10;;
61756;SDS011;57225;61.460;24.060;2022-10-16T17:09:10;13.55;;;6.88;;
61756;SDS011;57225;61.460;24.060;2022-10-16T17:11:56;13.55;;;7.43;;
61756;SDS011;57225;61.460;24.060;2022-10-16T17:14:41;21.92;;;7.75;;
61756;SDS011;57225;61.460;24.060;2022-10-16T17:17:25;15.15;;;7.68;;
61756;SDS011;57225;61.460;24.060;2022-10-16T17:20:10;15.23;;;7.13;;
61756;SDS011;57225;61.460;24.060;2022-10-16T17:22:54;16.10;;;7.20;;
61756;SDS011;57225;61.460;24.060;2022-10-16T17:25:39;17.30;;;6.85;;
61756;SDS011;57225;61.460;24.060;2022-10-16T17:28:24;12.80;;;7.43;;
61756;SDS011;57225;61.460;24.060;2022-10-16T17:31:09;17.75;;;8.00;;
61756;SDS011;57225;61.460;24.060;2022-10-16T17:33:57;14.32;;;7.18;;
61756;SDS011;57225;61.460;24.060;2022-10-16T17:36:42;14.55;;;7.60;;
61756;SDS011;57225;61.460;24.060;2022-10-16T17:39:26;15.73;;;7.75;;
61756;SDS011;57225;61.460;24.060;2022-10-16T17:42:11;21.77;;;7.63;;
61756;SDS011;57225;61.460;24.060;2022-10-16T17:44:55;16.40;;;7.07;;
61756;SDS011;57225;61.460;24.060;2022-10-16T17:47:39;17.58;;;6.88;;
61756;SDS011;57225;61.460;24.060;2022-10-16T17:50:26;11.43;;;6.13;;
61756;SDS011;57225;61.460;24.060;2022-10-16T17:53:11;15.55;;;6.95;;
61756;SDS011;57225;61.460;24.060;2022-10-16T17:55:55;15.80;;;6.63;;
61756;SDS011;57225;61.460;24.060;2022-10-16T17:58:42;12.48;;;6.95;;
61756;SDS011;57225;61.460;24.060;2022-10-16T18:01:34;13.00;;;6.80;;
61756;SDS011;57225;61.460;24.060;2022-10-16T18:04:19;13.95;;;7.05;;
61756;SDS011;57225;61.460;24.060;2022-10-16T18:07:04;15.80;;;7.00;;
61756;SDS011;57225;61.460;24.060;2022-10-16T18:09:48;17.98;;;7.03;;
61756;SDS011;57225;61.460;24.060;2022-10-16T18:12:33;13.25;;;7.20;;